createdAt,value
2022-08-18T00:00:33.397Z,73.28
2022-08-18T00:03:27.373Z,72.50
2022-08-18T00:05:55.744Z,69.93
2022-08-18T00:08:22.572Z,70.63
2022-08-18T00:10:49.428Z,70.57
2022-08-18T00:13:16.278Z,70.00
2022-08-18T00:15:49.441Z,69.57
2022-08-18T00:18:16.638Z,68.43
2022-08-18T00:20:43.665Z,68.37
2022-08-18T00:23:10.547Z,70.10
2022-08-18T00:25:37.669Z,72.30
2022-08-18T00:28:05.210Z,67.23
2022-08-18T00:30:32.806Z,68.60
2022-08-18T00:33:01.168Z,70.87
2022-08-18T00:35:30.070Z,71.57
2022-08-18T00:38:03.185Z,66.17
2022-08-18T00:40:42.925Z,69.53
2022-08-18T00:43:15.647Z,66.50
2022-08-18T00:45:43.567Z,66.70
2022-08-18T00:48:12.204Z,73.00
2022-08-18T00:50:40.859Z,67.03
2022-08-18T00:53:17.614Z,74.83
2022-08-18T00:55:53.823Z,70.80
2022-08-18T00:58:30.561Z,70.53
2022-08-18T01:00:57.588Z,70.00
2022-08-18T01:03:25.440Z,76.37
2022-08-18T01:06:28.412Z,72.10
2022-08-18T01:08:56.204Z,77.87
2022-08-18T01:11:23.711Z,77.23
2022-08-18T01:13:51.025Z,73.27
2022-08-18T01:16:36.966Z,73.70
2022-08-18T01:19:23.167Z,72.23
2022-08-18T01:21:55.406Z,79.83
2022-08-18T01:24:47.119Z,76.07
2022-08-18T01:27:17.909Z,73.40
2022-08-18T01:29:47.171Z,76.57
2022-08-18T01:32:22.580Z,77.17
2022-08-18T01:34:51.898Z,76.67
2022-08-18T01:37:22.500Z,79.57
2022-08-18T01:41:22.676Z,75.27
2022-08-18T01:42:39.654Z,70.53
2022-08-18T01:45:08.165Z,79.97
2022-08-18T01:47:47.776Z,73.80
2022-08-18T01:50:16.441Z,74.37
2022-08-18T01:52:43.634Z,77.90
2022-08-18T01:55:10.844Z,77.00
2022-08-18T01:57:46.770Z,79.90
2022-08-18T02:00:17.269Z,80.87
2022-08-18T02:02:44.396Z,78.23
2022-08-18T02:05:18.433Z,74.77
2022-08-18T02:07:45.552Z,78.07
2022-08-18T02:10:15.312Z,79.67
2022-08-18T02:12:43.813Z,72.40
2022-08-18T02:15:12.054Z,80.50
2022-08-18T02:17:40.814Z,82.50
2022-08-18T02:20:10.172Z,76.83
2022-08-18T02:22:37.800Z,81.73
2022-08-18T02:25:05.188Z,75.87
2022-08-18T02:27:35.231Z,84.17
2022-08-18T02:30:06.039Z,82.40
2022-08-18T02:32:33.388Z,83.30
2022-08-18T02:35:00.649Z,88.37
2022-08-18T02:37:27.487Z,87.63
2022-08-18T02:39:54.389Z,95.07
2022-08-18T02:42:21.646Z,86.87
2022-08-18T02:44:48.475Z,81.90
2022-08-18T02:47:20.614Z,84.37
2022-08-18T02:49:48.101Z,82.17
2022-08-18T02:52:15.329Z,88.30
2022-08-18T02:54:42.201Z,85.37
2022-08-18T02:57:10.833Z,91.73
2022-08-18T02:59:39.318Z,96.63
2022-08-18T03:02:08.366Z,93.90
2022-08-18T03:04:35.524Z,96.80
2022-08-18T03:07:06.628Z,96.40
2022-08-18T03:09:34.656Z,91.43
2022-08-18T03:12:02.143Z,97.60
2022-08-18T03:14:29.710Z,98.10
2022-08-18T03:16:57.104Z,100.03
2022-08-18T03:19:29.610Z,105.13
2022-08-18T03:22:02.581Z,99.53
2022-08-18T03:24:32.626Z,103.50
2022-08-18T03:27:01.679Z,106.33
2022-08-18T03:29:32.420Z,104.97
2022-08-18T03:32:01.739Z,110.17
2022-08-18T03:34:29.263Z,106.67
2022-08-18T03:36:56.134Z,108.87
2022-08-18T03:39:23.721Z,101.17
2022-08-18T03:41:59.658Z,101.50
2022-08-18T03:44:30.479Z,105.60
2022-08-18T03:46:57.943Z,108.17
2022-08-18T03:49:27.068Z,116.17
2022-08-18T03:51:54.421Z,113.93
2022-08-18T03:54:21.572Z,115.10
2022-08-18T03:56:49.491Z,119.27
2022-08-18T03:59:23.194Z,125.53
2022-08-18T04:01:51.930Z,115.57
2022-08-18T04:04:22.137Z,123.73
2022-08-18T04:07:04.421Z,123.77
2022-08-18T04:09:32.973Z,130.23
2022-08-18T04:12:10.370Z,135.47
2022-08-18T04:14:43.705Z,128.43
2022-08-18T04:17:10.861Z,127.30
2022-08-18T04:19:37.955Z,120.00
2022-08-18T04:22:05.746Z,122.27
2022-08-18T04:24:34.634Z,126.13
2022-08-18T04:27:04.934Z,112.87
2022-08-18T04:29:32.163Z,113.40
2022-08-18T04:32:04.700Z,114.50
2022-08-18T04:34:33.687Z,111.77
2022-08-18T04:37:02.247Z,112.60
2022-08-18T04:39:29.405Z,104.37
2022-08-18T04:41:56.819Z,98.33
2022-08-18T04:44:23.628Z,107.37
2022-08-18T04:46:53.387Z,105.00
2022-08-18T04:49:24.062Z,97.67
2022-08-18T04:52:37.604Z,99.97
2022-08-18T04:54:56.714Z,96.57
2022-08-18T04:57:24.040Z,89.20
2022-08-18T04:59:52.301Z,85.87
2022-08-18T05:02:21.602Z,89.90
2022-08-18T05:04:48.876Z,92.80
2022-08-18T05:07:19.929Z,92.33
2022-08-18T05:09:47.190Z,91.90
2022-08-18T05:12:15.724Z,89.57
2022-08-18T05:14:44.670Z,89.67
2022-08-18T05:17:13.347Z,88.23
2022-08-18T05:19:42.232Z,78.87
2022-08-18T05:22:11.684Z,78.27
2022-08-18T05:24:41.164Z,75.03
2022-08-18T05:27:07.996Z,72.70
2022-08-18T05:29:37.746Z,77.23
2022-08-18T05:32:09.408Z,73.37
2022-08-18T05:34:36.486Z,70.77
2022-08-18T05:37:14.442Z,69.40
2022-08-18T05:40:00.832Z,68.87
2022-08-18T05:42:35.218Z,67.97
2022-08-18T05:45:08.567Z,66.67
2022-08-18T05:47:35.434Z,66.37
2022-08-18T05:50:10.580Z,63.90
2022-08-18T05:52:49.702Z,63.60
2022-08-18T05:55:50.558Z,62.77
2022-08-18T05:58:32.938Z,58.83
2022-08-18T06:01:09.044Z,60.17
2022-08-18T06:03:47.051Z,56.83
2022-08-18T06:06:29.576Z,52.37
2022-08-18T06:09:05.798Z,48.45
2022-08-18T06:11:32.647Z,43.58
2022-08-18T06:14:01.430Z,44.20
2022-08-18T06:16:46.783Z,44.50
2022-08-18T06:19:19.344Z,41.70
2022-08-18T06:22:07.978Z,39.42
2022-08-18T06:24:46.113Z,36.50
2022-08-18T06:27:55.915Z,35.38
2022-08-18T06:30:24.731Z,37.55
2022-08-18T06:33:14.114Z,35.53
2022-08-18T06:35:48.488Z,36.78
2022-08-18T06:38:46.757Z,37.42
2022-08-18T06:41:40.567Z,37.75
2022-08-18T06:44:37.610Z,39.17
2022-08-18T06:47:40.832Z,38.05
2022-08-18T06:50:23.195Z,39.08
2022-08-18T06:52:56.365Z,41.17
2022-08-18T06:55:42.444Z,42.70
2022-08-18T06:58:18.250Z,42.40
2022-08-18T07:00:52.030Z,42.63
2022-08-18T07:03:41.349Z,43.38
2022-08-18T07:06:30.559Z,43.88
2022-08-18T07:09:18.820Z,44.45
2022-08-18T07:12:06.712Z,46.28
2022-08-18T07:14:44.837Z,46.65
2022-08-18T07:17:20.443Z,45.63
2022-08-18T07:19:59.558Z,48.88
2022-08-18T07:22:39.071Z,43.95
2022-08-18T07:25:06.911Z,45.97
2022-08-18T07:27:46.614Z,44.28
2022-08-18T07:30:25.210Z,46.20
2022-08-18T07:33:00.146Z,43.67
2022-08-18T07:35:49.603Z,41.40
2022-08-18T07:38:43.219Z,41.83
2022-08-18T07:41:24.074Z,42.10
2022-08-18T07:44:16.581Z,42.88
2022-08-18T07:47:00.557Z,42.67
2022-08-18T07:49:35.294Z,40.58
2022-08-18T07:52:14.622Z,39.55
2022-08-18T07:55:10.329Z,37.92
2022-08-18T07:58:18.389Z,38.92
2022-08-18T08:01:13.181Z,38.20
2022-08-18T08:03:48.858Z,38.28
2022-08-18T08:06:55.225Z,38.40
2022-08-18T08:09:42.382Z,39.08
2022-08-18T08:12:09.356Z,38.22
2022-08-18T08:14:45.883Z,39.40
2022-08-18T08:17:18.218Z,38.67
2022-08-18T08:20:01.584Z,39.97
2022-08-18T08:22:58.656Z,38.38
2022-08-18T08:25:47.425Z,38.38
2022-08-18T08:28:33.495Z,39.80
2022-08-18T08:31:36.242Z,38.70
2022-08-18T08:34:06.178Z,40.00
2022-08-18T08:36:38.194Z,39.90
2022-08-18T08:39:33.330Z,40.63
2022-08-18T08:42:30.535Z,39.30
2022-08-18T08:45:04.976Z,37.17
2022-08-18T08:47:45.328Z,36.22
2022-08-18T08:50:20.157Z,40.25
2022-08-18T08:53:06.200Z,38.92
2022-08-18T08:55:37.213Z,39.20
2022-08-18T08:58:23.437Z,39.42
2022-08-18T09:00:52.628Z,40.95
2022-08-18T09:03:31.744Z,39.72
2022-08-18T09:06:27.936Z,46.40
2022-08-18T09:09:33.365Z,44.80
2022-08-18T09:12:09.352Z,44.95
2022-08-18T09:14:53.511Z,44.05
2022-08-18T09:18:01.356Z,47.13
2022-08-18T09:21:05.704Z,49.13
2022-08-18T09:23:46.292Z,47.03
2022-08-18T09:26:39.347Z,45.17
2022-08-18T09:29:18.366Z,47.78
2022-08-18T09:31:46.601Z,42.80
2022-08-18T09:34:51.542Z,50.80
2022-08-18T09:37:27.041Z,51.50
2022-08-18T09:41:01.164Z,46.63
2022-08-18T09:43:52.040Z,49.33
2022-08-18T09:46:41.478Z,44.03
2022-08-18T09:49:22.756Z,46.58
2022-08-18T09:51:58.705Z,43.35
2022-08-18T09:54:31.450Z,43.90
2022-08-18T09:57:21.556Z,39.50
2022-08-18T09:59:49.230Z,38.88
2022-08-18T10:02:29.366Z,36.97
2022-08-18T10:05:15.029Z,38.00
2022-08-18T10:07:56.156Z,38.78
2022-08-18T10:11:08.856Z,40.90
2022-08-18T10:13:56.415Z,36.45
2022-08-18T10:19:56.084Z,33.17
2022-08-18T10:25:47.717Z,29.17
2022-08-18T10:28:54.131Z,26.35
2022-08-18T10:31:24.047Z,36.05
2022-08-18T10:34:16.819Z,32.80
2022-08-18T10:37:11.724Z,34.17
2022-08-18T10:40:04.544Z,31.25
2022-08-18T10:42:45.072Z,39.33
2022-08-18T10:45:33.140Z,34.08
2022-08-18T10:48:24.435Z,35.13
2022-08-18T10:51:02.229Z,38.00
2022-08-18T10:53:51.066Z,36.53
2022-08-18T10:56:45.535Z,36.92
2022-08-18T10:59:18.308Z,34.70
2022-08-18T11:02:38.904Z,35.83
2022-08-18T11:05:10.215Z,37.67
2022-08-18T11:07:42.983Z,38.65
2022-08-18T11:13:44.567Z,36.05
2022-08-18T11:16:17.114Z,33.20
2022-08-18T11:18:49.184Z,33.42
2022-08-18T11:21:34.343Z,34.17
2022-08-18T11:24:17.644Z,31.33
2022-08-18T11:26:55.946Z,32.45
2022-08-18T11:29:29.044Z,30.30
2022-08-18T11:32:11.031Z,30.92
2022-08-18T11:34:38.253Z,29.98
2022-08-18T11:37:20.842Z,29.90
2022-08-18T11:39:50.174Z,28.60
2022-08-18T11:42:24.896Z,28.52
2022-08-18T11:45:14.519Z,30.63
2022-08-18T11:48:02.536Z,31.30
2022-08-18T11:50:32.095Z,27.23
2022-08-18T11:53:18.893Z,27.90
2022-08-18T11:56:16.159Z,24.50
2022-08-18T11:58:53.811Z,27.52
2022-08-18T12:01:51.543Z,30.88
2022-08-18T12:04:28.821Z,29.90
2022-08-18T12:06:56.128Z,31.05
2022-08-18T12:12:46.017Z,29.02
2022-08-18T12:15:17.460Z,28.27
2022-08-18T12:17:52.930Z,29.77
2022-08-18T12:20:21.702Z,30.13
2022-08-18T12:22:50.001Z,28.98
2022-08-18T12:25:25.442Z,25.83
2022-08-18T12:27:53.889Z,27.95
2022-08-18T12:30:20.906Z,24.15
2022-08-18T12:32:56.093Z,22.90
2022-08-18T12:35:34.886Z,23.80
2022-08-18T12:38:04.980Z,24.10
2022-08-18T12:40:42.170Z,23.83
2022-08-18T12:43:09.680Z,23.33
2022-08-18T12:45:38.560Z,23.92
2022-08-18T12:48:07.800Z,22.75
2022-08-18T12:50:49.969Z,22.23
2022-08-18T12:53:30.806Z,22.80
2022-08-18T12:56:20.932Z,24.08
2022-08-18T12:58:49.848Z,26.13
2022-08-18T13:01:23.301Z,27.10
2022-08-18T13:04:11.128Z,26.30
2022-08-18T13:06:45.428Z,29.25
2022-08-18T13:09:48.594Z,26.15
2022-08-18T13:12:17.320Z,28.50
2022-08-18T13:14:44.793Z,27.73
2022-08-18T13:17:29.136Z,26.00
2022-08-18T13:20:01.921Z,27.45
2022-08-18T13:22:32.448Z,26.77
2022-08-18T13:25:03.823Z,25.88
2022-08-18T13:27:33.581Z,25.65
2022-08-18T13:30:29.391Z,25.73
2022-08-18T13:32:59.432Z,26.20
2022-08-18T13:35:38.054Z,25.67
2022-08-18T13:38:15.762Z,23.50
2022-08-18T13:40:50.405Z,23.73
2022-08-18T13:43:26.067Z,25.40
2022-08-18T13:45:56.034Z,23.20
2022-08-18T13:48:26.744Z,20.88
2022-08-18T13:50:56.012Z,21.88
2022-08-18T13:53:24.647Z,21.70
2022-08-18T13:55:53.316Z,19.58
2022-08-18T13:58:21.283Z,20.52
2022-08-18T14:01:05.534Z,20.58
2022-08-18T14:03:47.260Z,19.70
2022-08-18T14:06:21.948Z,19.00
2022-08-18T14:08:52.411Z,18.00
2022-08-18T14:11:22.054Z,16.60
2022-08-18T14:13:49.072Z,16.02
2022-08-18T14:16:18.812Z,15.98
2022-08-18T14:19:10.570Z,15.63
2022-08-18T14:22:03.663Z,15.15
2022-08-18T14:24:50.417Z,13.40
2022-08-18T14:27:19.434Z,12.98
2022-08-18T14:29:48.941Z,13.25
2022-08-18T14:32:28.402Z,13.52
2022-08-18T14:35:00.393Z,12.98
2022-08-18T14:37:29.020Z,12.55
2022-08-18T14:39:56.630Z,12.20
2022-08-18T14:42:40.933Z,12.73
2022-08-18T14:45:17.718Z,13.23
2022-08-18T14:47:58.846Z,12.18
2022-08-18T14:50:27.019Z,13.35
2022-08-18T14:52:53.893Z,11.90
2022-08-18T14:55:20.941Z,10.68
2022-08-18T14:57:50.421Z,9.75
2022-08-18T15:00:22.535Z,9.40
2022-08-18T15:02:50.360Z,9.40
2022-08-18T15:05:19.907Z,8.32
2022-08-18T15:07:52.343Z,8.27
2022-08-18T15:10:23.401Z,7.50
2022-08-18T15:12:51.256Z,6.80
2022-08-18T15:15:18.821Z,6.32
2022-08-18T15:17:52.607Z,6.38
2022-08-18T15:20:28.769Z,6.82
2022-08-18T15:23:24.904Z,7.63
2022-08-18T15:25:55.358Z,6.95
2022-08-18T15:28:27.074Z,5.90
2022-08-18T15:33:42.000Z,5.75
2022-08-18T15:36:10.349Z,6.97
2022-08-18T15:38:43.270Z,6.68
2022-08-18T15:41:10.396Z,5.70
2022-08-18T15:43:39.973Z,6.75
2022-08-18T15:46:16.685Z,6.60
2022-08-18T15:48:44.566Z,6.28
2022-08-18T15:51:12.341Z,6.13
2022-08-18T15:53:44.550Z,6.03
2022-08-18T15:56:20.585Z,6.47
2022-08-18T15:58:48.429Z,7.20
2022-08-18T16:01:20.909Z,7.00
2022-08-18T16:04:00.681Z,5.38
2022-08-18T16:06:32.335Z,5.45
2022-08-18T16:09:00.353Z,5.35
2022-08-18T16:11:29.514Z,5.47
2022-08-18T16:13:59.116Z,6.93
2022-08-18T16:16:29.192Z,8.15
2022-08-18T16:19:04.782Z,5.68
2022-08-18T16:21:31.871Z,7.97
2022-08-18T16:23:59.720Z,5.40
2022-08-18T16:26:27.549Z,4.93
2022-08-18T16:28:54.726Z,4.38
2022-08-18T16:31:26.182Z,5.00
2022-08-18T16:33:55.071Z,4.70
2022-08-18T16:36:25.572Z,4.10
2022-08-18T16:38:53.716Z,4.55
2022-08-18T16:41:23.282Z,4.97
2022-08-18T16:43:50.706Z,5.63
2022-08-18T16:46:23.550Z,4.55
2022-08-18T16:48:51.478Z,5.70
2022-08-18T16:51:22.037Z,5.15
2022-08-18T16:53:52.597Z,5.15
2022-08-18T16:56:23.508Z,6.43
2022-08-18T16:59:09.771Z,7.55
2022-08-18T17:01:56.620Z,6.28
2022-08-18T17:04:30.217Z,6.45
2022-08-18T17:06:57.343Z,9.52
2022-08-18T17:09:24.935Z,6.15
2022-08-18T17:11:53.328Z,6.95
2022-08-18T17:14:26.313Z,6.57
2022-08-18T17:16:55.351Z,6.88
2022-08-18T17:19:30.126Z,5.53
2022-08-18T17:21:57.384Z,8.15
2022-08-18T17:24:31.776Z,10.57
2022-08-18T17:27:12.026Z,7.80
2022-08-18T17:30:17.869Z,5.25
2022-08-18T17:33:00.766Z,5.68
2022-08-18T17:35:42.038Z,5.93
2022-08-18T17:38:49.717Z,5.80
2022-08-18T17:41:21.300Z,5.93
2022-08-18T17:43:48.324Z,5.85
2022-08-18T17:46:27.641Z,8.07
2022-08-18T17:49:46.156Z,5.63
2022-08-18T17:52:15.030Z,6.15
2022-08-18T17:54:50.457Z,6.70
2022-08-18T17:57:23.506Z,7.72
2022-08-18T18:00:12.194Z,8.50
2022-08-18T18:02:41.161Z,9.20
2022-08-18T18:05:11.967Z,8.60
2022-08-18T18:07:59.861Z,7.40
2022-08-18T18:13:34.540Z,5.03
2022-08-18T18:16:23.582Z,6.63
2022-08-18T18:19:01.477Z,5.90
2022-08-18T18:22:00.789Z,5.68
2022-08-18T18:24:24.194Z,5.13
2022-08-18T18:26:52.466Z,6.45
2022-08-18T18:29:35.933Z,5.43
2022-08-18T18:32:28.884Z,7.07
2022-08-18T18:35:12.488Z,6.80
2022-08-18T18:37:54.723Z,6.63
2022-08-18T18:40:30.614Z,7.35
2022-08-18T18:43:18.006Z,7.40
2022-08-18T18:46:05.159Z,5.80
2022-08-18T18:48:55.219Z,6.47
2022-08-18T18:51:50.862Z,4.05
2022-08-18T18:54:50.539Z,5.95
2022-08-18T18:57:24.993Z,6.38
2022-08-18T19:00:02.627Z,4.82
2022-08-18T19:02:54.715Z,6.00
2022-08-18T19:05:40.365Z,5.25
2022-08-18T19:08:33.115Z,7.47
2022-08-18T19:11:10.178Z,6.10
2022-08-18T19:13:46.104Z,7.75
2022-08-18T19:16:23.862Z,5.53
2022-08-18T19:19:35.706Z,6.20
2022-08-18T19:22:03.940Z,6.78
2022-08-18T19:24:36.820Z,7.85
2022-08-18T19:27:04.922Z,6.20
2022-08-18T19:29:41.841Z,9.10
2022-08-18T19:32:16.534Z,6.22
2022-08-18T19:34:51.621Z,8.48
2022-08-18T19:37:50.035Z,5.10
2022-08-18T19:40:27.613Z,5.20
2022-08-18T19:43:27.414Z,5.93
2022-08-18T19:46:25.424Z,4.95
2022-08-18T19:49:16.639Z,6.18
2022-08-18T19:51:47.880Z,5.93
2022-08-18T19:54:17.785Z,10.40
2022-08-18T19:57:15.530Z,5.50
2022-08-18T20:00:10.567Z,5.57
2022-08-18T20:02:55.896Z,9.35
2022-08-18T20:05:46.088Z,6.22
2022-08-18T20:08:31.699Z,5.60
2022-08-18T20:11:41.995Z,5.28
2022-08-18T20:14:17.196Z,5.60
2022-08-18T20:17:07.237Z,8.23
2022-08-18T20:19:40.063Z,8.60
2022-08-18T20:22:16.184Z,5.65
2022-08-18T20:24:54.305Z,8.55
2022-08-18T20:27:49.510Z,7.63
2022-08-18T20:30:33.748Z,8.07
2022-08-18T20:33:10.180Z,7.95
2022-08-18T20:36:11.612Z,6.95
2022-08-18T20:38:50.680Z,4.85
2022-08-18T20:41:23.816Z,6.25
2022-08-18T20:43:58.431Z,7.15
2022-08-18T20:47:09.949Z,8.93
2022-08-18T20:49:51.092Z,8.95
2022-08-18T20:52:37.952Z,7.50
2022-08-18T20:55:17.155Z,9.38
2022-08-18T20:57:45.130Z,6.32
2022-08-18T21:00:22.556Z,8.48
2022-08-18T21:02:59.448Z,7.10
2022-08-18T21:05:35.135Z,8.95
2022-08-18T21:08:17.337Z,6.00
2022-08-18T21:11:00.694Z,8.55
2022-08-18T21:13:42.570Z,7.35
2022-08-18T21:16:15.088Z,6.95
2022-08-18T21:18:56.786Z,7.15
2022-08-18T21:21:32.850Z,9.37
2022-08-18T21:24:02.212Z,7.35
2022-08-18T21:26:31.201Z,13.20
2022-08-18T21:29:09.030Z,8.47
2022-08-18T21:31:44.973Z,8.53
2022-08-18T21:34:18.641Z,8.07
2022-08-18T21:36:54.236Z,8.00
2022-08-18T21:39:22.367Z,7.30
2022-08-18T21:41:53.210Z,8.57
2022-08-18T21:44:49.399Z,7.47
2022-08-18T21:47:34.243Z,11.90
2022-08-18T21:50:10.209Z,9.77
2022-08-18T21:52:40.375Z,11.43
2022-08-18T21:55:29.159Z,8.80
2022-08-18T21:58:17.959Z,13.67
2022-08-18T22:00:44.903Z,8.70
2022-08-18T22:03:18.226Z,7.07
2022-08-18T22:06:07.752Z,10.27
2022-08-18T22:08:49.681Z,11.63
2022-08-18T22:12:07.988Z,11.93
2022-08-18T22:14:54.636Z,12.17
2022-08-18T22:17:28.736Z,7.90
2022-08-18T22:20:15.879Z,12.90
2022-08-18T22:23:01.447Z,10.13
2022-08-18T22:25:28.302Z,10.90
2022-08-18T22:27:56.957Z,9.20
2022-08-18T22:30:23.854Z,9.77
2022-08-18T22:32:50.688Z,9.93
2022-08-18T22:35:17.736Z,15.57
2022-08-18T22:37:50.564Z,9.50
2022-08-18T22:40:21.860Z,8.23
2022-08-18T22:42:49.610Z,9.37
2022-08-18T22:45:16.529Z,10.60
2022-08-18T22:47:45.307Z,9.07
2022-08-18T22:50:13.622Z,11.33
2022-08-18T22:52:46.483Z,10.90
2022-08-18T22:55:15.990Z,10.57
2022-08-18T22:57:47.678Z,10.97
2022-08-18T23:00:21.142Z,11.27
2022-08-18T23:02:49.818Z,11.13
2022-08-18T23:05:16.813Z,10.33
2022-08-18T23:07:43.796Z,13.53
2022-08-18T23:10:14.021Z,12.70
2022-08-18T23:12:43.107Z,13.63
2022-08-18T23:15:13.378Z,9.50
2022-08-18T23:17:41.681Z,12.20
2022-08-18T23:20:17.457Z,12.60
2022-08-18T23:22:46.268Z,8.60
2022-08-18T23:25:13.541Z,9.47
2022-08-18T23:27:43.075Z,14.20
2022-08-18T23:30:12.897Z,15.10
2022-08-18T23:32:39.754Z,11.37
2022-08-18T23:35:06.960Z,11.33
2022-08-18T23:37:33.788Z,10.80
2022-08-18T23:40:00.664Z,10.53
2022-08-18T23:42:27.599Z,11.70
2022-08-18T23:45:03.653Z,14.50
2022-08-18T23:47:30.555Z,10.37
2022-08-18T23:49:57.811Z,12.90
2022-08-18T23:52:24.725Z,10.60
2022-08-18T23:54:51.580Z,9.73
2022-08-18T23:57:18.509Z,10.27
2022-08-18T23:59:45.722Z,7.93
